Time;durP1;ratioP1;P1;durP2;ratioP2;P2;SDS_P1;SDS_P2;PMS_P1;PMS_P2;Temp;Humidity;BMP_temperature;BMP_pressure;BME280_temperature;BME280_humidity;BME280_pressure;Samples;Min_cycle;Max_cycle;Signal;HPM_P1;HPM_P2
2023/08/30 00:02:17;;;;;;;4.32;2.72;;;16.10;99.90;;;;;;10126182;29;20687;-87
2023/08/30 00:07:19;;;;;;;3.03;2.45;;;16.10;99.90;;;;;;10129465;29;20285;-87
2023/08/30 00:12:21;;;;;;;1.90;1.75;;;16.10;99.90;;;;;;10131511;29;20288;-87
2023/08/30 00:17:24;;;;;;;3.55;2.90;;;16.10;99.90;;;;;;10130205;29;20232;-87
2023/08/30 00:22:27;;;;;;;2.50;2.22;;;16.10;99.90;;;;;;10134913;29;20297;-87
2023/08/30 00:27:30;;;;;;;4.13;3.47;;;16.00;99.90;;;;;;10133276;29;20248;-87
2023/08/30 00:32:32;;;;;;;3.08;2.70;;;16.10;99.90;;;;;;10133281;29;20251;-86
2023/08/30 00:37:35;;;;;;;3.80;3.15;;;16.10;99.90;;;;;;10116644;29;20236;-87
2023/08/30 00:42:40;;;;;;;3.72;2.95;;;16.00;99.90;;;;;;10092663;29;20305;-87
2023/08/30 00:47:43;;;;;;;5.50;3.22;;;16.20;99.90;;;;;;10093307;29;20787;-87
2023/08/30 00:52:45;;;;;;;3.17;2.30;;;16.30;99.90;;;;;;10095313;29;20253;-87
2023/08/30 00:57:48;;;;;;;5.43;2.40;;;16.20;99.90;;;;;;10097949;29;20655;-87
2023/08/30 01:02:51;;;;;;;3.03;2.72;;;16.20;99.90;;;;;;10094170;29;20308;-87
2023/08/30 01:07:55;;;;;;;4.63;2.38;;;16.20;99.90;;;;;;10092512;29;20652;-87
2023/08/30 01:13:07;;;;;;;5.63;2.88;;;16.20;99.90;;;;;;10092556;29;20719;-87
2023/08/30 01:18:11;;;;;;;2.40;2.20;;;16.20;99.90;;;;;;10092079;29;20277;-87
2023/08/30 01:23:24;;;;;;;2.35;2.05;;;16.20;99.90;;;;;;10092692;29;20241;-87
2023/08/30 01:28:30;;;;;;;3.35;2.60;;;16.10;99.90;;;;;;10089034;29;20240;-87
2023/08/30 01:33:33;;;;;;;3.67;2.05;;;16.10;99.90;;;;;;10105805;29;20265;-87
2023/08/30 01:38:38;;;;;;;2.10;1.90;;;16.10;99.90;;;;;;10084739;29;20270;-87
2023/08/30 01:43:41;;;;;;;2.72;2.00;;;16.00;99.90;;;;;;10091896;29;20276;-87
2023/08/30 01:48:46;;;;;;;3.47;2.25;;;16.10;99.90;;;;;;10075315;29;20245;-86
2023/08/30 01:53:49;;;;;;;3.35;2.65;;;16.10;99.90;;;;;;10089169;29;20736;-86
2023/08/30 01:58:52;;;;;;;2.88;2.55;;;16.10;99.90;;;;;;10086761;29;20240;-86
2023/08/30 02:03:54;;;;;;;5.30;2.33;;;16.10;99.90;;;;;;10089487;29;20241;-87
2023/08/30 02:09:26;;;;;;;4.75;2.30;;;16.10;99.90;;;;;;10089549;29;20681;-87
2023/08/30 02:14:30;;;;;;;3.47;2.63;;;16.00;99.90;;;;;;10091320;29;20312;-87
2023/08/30 02:19:34;;;;;;;3.60;3.08;;;16.00;99.90;;;;;;10092170;29;20228;-86
2023/08/30 02:24:36;;;;;;;4.25;3.13;;;16.00;99.90;;;;;;10092039;29;20670;-87
2023/08/30 02:29:39;;;;;;;3.25;2.50;;;16.00;99.90;;;;;;10090253;29;20240;-87
2023/08/30 02:34:41;;;;;;;3.17;2.55;;;15.90;99.90;;;;;;10104794;29;20324;-86
2023/08/30 02:39:44;;;;;;;2.63;1.63;;;16.00;99.90;;;;;;10090502;29;20717;-86
2023/08/30 02:44:46;;;;;;;1.77;1.50;;;15.90;99.90;;;;;;10113262;29;20256;-87
2023/08/30 02:49:49;;;;;;;1.80;1.40;;;15.90;99.90;;;;;;10112544;29;20243;-86
2023/08/30 02:54:51;;;;;;;1.60;1.40;;;16.00;99.90;;;;;;10112468;29;20268;-87
2023/08/30 02:59:54;;;;;;;3.25;2.58;;;16.10;99.90;;;;;;10127970;29;20248;-87
2023/08/30 03:04:57;;;;;;;4.55;1.95;;;16.10;99.90;;;;;;10112275;29;20303;-87
2023/08/30 03:09:59;;;;;;;2.55;1.60;;;16.10;99.90;;;;;;10128230;29;20320;-87
2023/08/30 03:15:04;;;;;;;8.40;2.78;;;16.00;99.90;;;;;;10111101;29;20296;-87
2023/08/30 03:20:07;;;;;;;1.65;1.55;;;15.90;99.90;;;;;;10111733;29;20247;-86
2023/08/30 03:25:10;;;;;;;1.02;0.90;;;15.80;99.90;;;;;;10113635;29;20357;-87
2023/08/30 03:30:14;;;;;;;1.70;1.42;;;15.70;99.90;;;;;;10111299;29;20243;-87
2023/08/30 03:35:20;;;;;;;2.20;2.00;;;15.70;99.90;;;;;;10126454;29;20239;-87
2023/08/30 03:40:23;;;;;;;2.75;1.60;;;15.70;99.90;;;;;;10111658;29;20280;-87
2023/08/30 03:45:26;;;;;;;3.50;2.63;;;15.70;99.90;;;;;;10110644;29;20235;-87
2023/08/30 03:50:29;;;;;;;3.28;2.47;;;15.70;99.90;;;;;;10111220;29;20614;-86
2023/08/30 03:55:32;;;;;;;1.95;1.70;;;15.80;99.90;;;;;;10126352;29;20244;-87
2023/08/30 04:00:38;;;;;;;3.70;1.73;;;15.80;99.90;;;;;;10110305;29;20204;-87
2023/08/30 04:05:42;;;;;;;3.00;1.67;;;15.90;99.90;;;;;;10082988;29;20228;-87
2023/08/30 04:10:47;;;;;;;1.77;1.63;;;15.80;99.90;;;;;;10109797;29;20318;-86
2023/08/30 04:15:51;;;;;;;3.58;2.50;;;15.80;99.90;;;;;;10114905;29;20208;-87
2023/08/30 04:20:53;;;;;;;2.15;1.95;;;15.70;99.90;;;;;;10128647;29;20627;-86
2023/08/30 04:25:56;;;;;;;5.70;2.00;;;15.70;99.90;;;;;;10115183;29;20213;-86
2023/08/30 04:30:58;;;;;;;3.08;1.73;;;15.80;99.90;;;;;;10114066;29;20232;-86
2023/08/30 04:36:03;;;;;;;2.38;2.17;;;15.80;99.90;;;;;;10119539;29;20220;-88
2023/08/30 04:41:07;;;;;;;3.30;2.83;;;15.70;99.90;;;;;;10112520;29;20308;-86
2023/08/30 04:46:11;;;;;;;4.35;3.28;;;15.60;99.90;;;;;;10112126;29;20216;-86
2023/08/30 04:51:13;;;;;;;5.13;4.57;;;15.60;99.90;;;;;;10113531;29;20267;-85
2023/08/30 04:56:18;;;;;;;3.22;2.92;;;15.50;99.90;;;;;;10118201;29;20639;-86
2023/08/30 05:01:21;;;;;;;3.35;2.83;;;15.50;99.90;;;;;;10104261;29;20275;-86
2023/08/30 05:06:27;;;;;;;5.43;3.10;;;15.60;99.90;;;;;;10121677;29;20212;-85
2023/08/30 05:11:29;;;;;;;5.93;3.42;;;15.60;99.90;;;;;;10135971;29;20232;-85
2023/08/30 05:16:32;;;;;;;3.83;3.05;;;15.60;99.90;;;;;;10118640;29;20236;-85
2023/08/30 05:21:36;;;;;;;4.38;3.20;;;15.70;99.90;;;;;;10119127;29;20283;-84
2023/08/30 05:26:39;;;;;;;2.95;2.42;;;15.70;99.90;;;;;;10123195;29;20209;-86
2023/08/30 05:31:43;;;;;;;6.40;2.28;;;15.60;99.90;;;;;;10117477;29;20257;-86
2023/08/30 05:36:59;;;;;;;3.75;2.72;;;15.60;99.90;;;;;;10121186;29;20212;-85
2023/08/30 05:42:24;;;;;;;3.72;2.28;;;15.70;99.90;;;;;;10138221;29;20296;-84
2023/08/30 05:47:27;;;;;;;3.13;2.25;;;15.70;99.90;;;;;;10120462;29;20201;-86
2023/08/30 05:52:30;;;;;;;5.40;3.10;;;16.10;99.90;;;;;;10121651;29;20228;-86
2023/08/30 05:57:33;;;;;;;2.50;1.63;;;16.00;99.90;;;;;;10134791;29;20200;-86
2023/08/30 06:02:36;;;;;;;1.63;1.52;;;15.90;99.90;;;;;;10120725;29;20331;-86
2023/08/30 06:07:38;;;;;;;1.42;1.05;;;15.80;99.90;;;;;;10136581;29;20201;-85
2023/08/30 06:12:41;;;;;;;2.65;0.90;;;15.80;99.90;;;;;;10112424;29;20294;-86
2023/08/30 06:17:43;;;;;;;5.00;1.23;;;15.90;99.90;;;;;;10113825;29;20582;-86
2023/08/30 06:22:47;;;;;;;2.03;1.08;;;15.90;99.90;;;;;;10134986;29;20208;-85
2023/08/30 06:28:01;;;;;;;4.85;0.60;;;15.90;99.90;;;;;;10135244;29;20220;-85
2023/08/30 06:33:04;;;;;;;1.65;1.10;;;15.90;99.90;;;;;;10135634;29;20220;-85
2023/08/30 06:38:06;;;;;;;6.75;0.85;;;16.10;99.90;;;;;;10135326;29;20621;-87
2023/08/30 06:43:09;;;;;;;0.60;0.50;;;16.50;99.90;;;;;;10118500;29;20292;-86
2023/08/30 06:48:12;;;;;;;0.82;0.40;;;16.60;99.90;;;;;;10134814;29;20204;-84
2023/08/30 06:53:15;;;;;;;1.08;0.43;;;16.70;99.90;;;;;;10153126;29;20228;-86
2023/08/30 06:58:17;;;;;;;4.25;0.75;;;17.00;99.90;;;;;;10156102;29;20212;-86
2023/08/30 07:03:20;;;;;;;1.15;0.57;;;16.90;99.90;;;;;;10161043;29;20208;-85
2023/08/30 07:08:22;;;;;;;5.97;0.95;;;16.80;99.90;;;;;;10133985;29;20580;-85
2023/08/30 07:13:25;;;;;;;0.47;0.32;;;16.80;99.90;;;;;;10129542;29;20315;-85
2023/08/30 07:18:27;;;;;;;0.55;0.43;;;16.80;99.90;;;;;;10099970;29;20632;-87
2023/08/30 07:23:30;;;;;;;0.60;0.50;;;16.70;99.90;;;;;;10134060;29;20237;-86
2023/08/30 07:28:33;;;;;;;2.50;0.40;;;16.60;99.90;;;;;;10130294;29;20616;-85
2023/08/30 07:33:35;;;;;;;1.27;0.77;;;16.60;99.90;;;;;;10157362;29;20235;-88
2023/08/30 07:38:38;;;;;;;3.65;0.57;;;16.60;99.90;;;;;;10173214;29;20653;-87
2023/08/30 07:43:40;;;;;;;4.13;1.00;;;16.60;99.90;;;;;;10148609;29;20668;-87
2023/08/30 07:48:43;;;;;;;1.30;1.02;;;16.60;99.90;;;;;;10133443;29;20213;-88
2023/08/30 07:53:45;;;;;;;1.38;0.95;;;16.70;99.90;;;;;;10119304;29;20570;-89
2023/08/30 07:58:48;;;;;;;1.50;0.90;;;16.80;99.90;;;;;;10133886;29;20229;-89
2023/08/30 08:03:50;;;;;;;1.23;0.88;;;16.80;99.90;;;;;;10134045;29;20632;-88
2023/08/30 08:09:08;;;;;;;0.80;0.57;;;16.70;99.90;;;;;;10129675;29;20240;-88
2023/08/30 08:14:11;;;;;;;1.13;0.90;;;16.80;99.90;;;;;;10132384;29;20228;-88
2023/08/30 08:19:13;;;;;;;0.60;0.60;;;16.90;99.90;;;;;;10132351;29;20658;-89
2023/08/30 08:24:16;;;;;;;0.80;0.80;;;16.90;99.90;;;;;;10101344;29;20200;-88
2023/08/30 08:29:18;;;;;;;2.13;1.50;;;16.90;99.90;;;;;;10118766;29;20212;-89
2023/08/30 08:34:21;;;;;;;0.70;0.70;;;16.80;99.90;;;;;;10138116;29;20647;-89
2023/08/30 08:39:27;;;;;;;3.90;0.88;;;16.80;99.90;;;;;;10142461;29;20276;-89
2023/08/30 08:44:32;;;;;;;1.20;0.55;;;17.00;99.90;;;;;;10141038;29;20302;-89
2023/08/30 08:49:35;;;;;;;1.00;0.70;;;17.10;99.90;;;;;;10135690;29;20755;-89
2023/08/30 08:54:40;;;;;;;1.10;0.82;;;17.00;99.90;;;;;;10136594;29;20217;-88
2023/08/30 08:59:43;;;;;;;0.75;0.75;;;17.00;99.90;;;;;;10135783;29;20627;-89
2023/08/30 09:04:45;;;;;;;1.50;1.38;;;16.90;99.90;;;;;;10135864;29;20208;-88
2023/08/30 09:09:49;;;;;;;1.45;1.08;;;16.80;99.90;;;;;;10134158;29;20236;-88
2023/08/30 09:14:57;;;;;;;3.28;0.77;;;16.80;99.90;;;;;;10132341;29;20267;-88
2023/08/30 09:20:10;;;;;;;1.40;1.13;;;16.70;99.90;;;;;;10133449;29;20304;-89
2023/08/30 09:25:24;;;;;;;2.97;1.15;;;16.80;99.90;;;;;;10134918;29;20236;-89
2023/08/30 09:30:28;;;;;;;1.13;0.90;;;17.20;99.90;;;;;;10132592;29;20240;-89
2023/08/30 09:35:31;;;;;;;3.95;1.45;;;17.30;99.90;;;;;;10116775;29;20236;-89
2023/08/30 09:40:34;;;;;;;1.50;0.75;;;17.70;99.90;;;;;;10133244;29;20263;-88
2023/08/30 09:45:37;;;;;;;0.80;0.52;;;17.60;99.90;;;;;;10116458;29;20782;-89
2023/08/30 09:50:45;;;;;;;1.00;0.60;;;17.50;99.90;;;;;;10132935;29;20695;-89
2023/08/30 09:55:49;;;;;;;2.45;0.65;;;17.30;99.90;;;;;;10133329;29;20704;-90
2023/08/30 10:00:51;;;;;;;1.27;0.88;;;17.30;99.90;;;;;;10129542;29;20239;-90
2023/08/30 10:05:54;;;;;;;1.40;0.52;;;17.30;99.90;;;;;;10130865;29;20240;-89
2023/08/30 10:10:58;;;;;;;1.20;0.70;;;17.20;99.90;;;;;;10131332;29;20628;-89
2023/08/30 10:16:03;;;;;;;0.80;0.52;;;17.40;99.90;;;;;;10125872;29;20260;-88
2023/08/30 10:21:10;;;;;;;0.50;0.32;;;17.40;99.90;;;;;;10116352;29;20660;-89
2023/08/30 10:26:15;;;;;;;1.23;0.47;;;17.40;99.90;;;;;;10124932;29;20236;-88
2023/08/30 10:31:17;;;;;;;2.33;0.70;;;17.50;99.90;;;;;;10129701;29;20291;-89
2023/08/30 10:36:27;;;;;;;1.88;0.93;;;17.50;99.90;;;;;;10129067;29;20255;-89
2023/08/30 10:41:29;;;;;;;1.10;0.73;;;17.60;99.90;;;;;;10129853;29;20289;-88
2023/08/30 10:46:33;;;;;;;1.20;0.52;;;17.50;99.90;;;;;;10129619;29;20718;-89
2023/08/30 10:51:38;;;;;;;0.73;0.70;;;17.40;99.90;;;;;;10130310;29;20292;-89
2023/08/30 10:56:59;;;;;;;1.90;0.80;;;17.50;99.90;;;;;;10096308;29;20824;-89
2023/08/30 11:02:03;;;;;;;1.70;0.55;;;17.50;99.90;;;;;;10112453;29;20240;-88
2023/08/30 11:07:06;;;;;;;1.15;0.38;;;17.40;99.90;;;;;;10112486;29;20232;-89
2023/08/30 11:12:09;;;;;;;1.08;0.57;;;17.40;99.90;;;;;;10128220;29;20236;-89
2023/08/30 11:17:11;;;;;;;0.35;0.30;;;17.20;99.90;;;;;;10128141;29;20244;-88
2023/08/30 11:22:16;;;;;;;1.10;0.75;;;17.10;99.90;;;;;;10126888;29;20247;-88
2023/08/30 11:27:19;;;;;;;0.57;0.40;;;17.10;99.90;;;;;;10127740;29;20259;-88
2023/08/30 11:32:21;;;;;;;0.90;0.50;;;16.90;99.90;;;;;;10127877;29;20295;-88
2023/08/30 11:37:27;;;;;;;1.20;0.70;;;16.90;99.90;;;;;;10127498;29;20299;-88
2023/08/30 11:42:31;;;;;;;0.63;0.63;;;16.90;99.90;;;;;;10124869;29;20260;-88
2023/08/30 11:47:34;;;;;;;0.40;0.40;;;17.00;99.90;;;;;;10123838;29;20232;-88
2023/08/30 11:52:38;;;;;;;0.40;0.30;;;17.10;99.90;;;;;;10126581;29;20251;-88
2023/08/30 11:57:44;;;;;;;0.50;0.40;;;16.90;99.90;;;;;;10127197;29;20232;-87
2023/08/30 12:02:47;;;;;;;0.65;0.30;;;16.80;99.90;;;;;;10126712;29;20639;-88
2023/08/30 12:07:49;;;;;;;1.27;0.50;;;17.00;99.90;;;;;;10135261;29;20232;-88
2023/08/30 12:12:52;;;;;;;1.88;0.30;;;17.10;99.90;;;;;;10133711;29;20259;-87
2023/08/30 12:17:55;;;;;;;1.33;0.50;;;17.10;99.90;;;;;;10133852;29;20243;-87
2023/08/30 12:22:57;;;;;;;0.57;0.30;;;16.80;99.90;;;;;;10133101;29;20272;-88
2023/08/30 12:28:00;;;;;;;0.80;0.73;;;16.80;99.90;;;;;;10133275;29;20291;-88
2023/08/30 12:33:06;;;;;;;0.52;0.35;;;16.80;99.90;;;;;;10116300;29;20299;-88
2023/08/30 12:38:09;;;;;;;0.47;0.47;;;16.90;99.90;;;;;;10133422;29;20736;-88
2023/08/30 12:43:12;;;;;;;1.15;0.47;;;16.80;99.90;;;;;;10132477;29;20722;-91
2023/08/30 12:48:17;;;;;;;2.42;0.30;;;16.90;99.90;;;;;;10132282;29;20220;-88
2023/08/30 12:53:20;;;;;;;0.40;0.30;;;16.80;99.90;;;;;;10099217;29;20332;-89
2023/08/30 12:58:23;;;;;;;1.85;0.30;;;16.70;99.90;;;;;;10115953;29;20241;-87
2023/08/30 13:03:26;;;;;;;2.83;0.73;;;16.90;99.90;;;;;;10127108;29;20649;-85
2023/08/30 13:08:28;;;;;;;1.48;0.30;;;17.20;99.90;;;;;;10095023;29;20784;-87
2023/08/30 13:13:31;;;;;;;0.52;0.30;;;17.40;99.90;;;;;;10093472;29;20671;-86
2023/08/30 13:18:34;;;;;;;0.15;0.15;;;17.60;99.90;;;;;;10095054;29;20692;-87
2023/08/30 13:23:36;;;;;;;0.73;0.30;;;17.60;99.90;;;;;;10094868;29;20632;-87
2023/08/30 13:28:40;;;;;;;0.50;0.47;;;17.60;99.90;;;;;;10094144;29;20308;-87
2023/08/30 13:33:42;;;;;;;1.52;0.60;;;17.80;99.90;;;;;;10094274;29;20748;-87
2023/08/30 13:38:45;;;;;;;1.30;0.43;;;17.80;99.90;;;;;;10094079;29;20671;-87
2023/08/30 13:43:47;;;;;;;1.50;0.50;;;17.60;99.90;;;;;;10091312;29;20272;-87
2023/08/30 13:48:50;;;;;;;1.55;0.75;;;17.50;99.90;;;;;;10093208;29;20240;-87
2023/08/30 13:53:52;;;;;;;3.95;0.52;;;17.40;99.90;;;;;;10092042;29;20264;-92
2023/08/30 13:58:56;;;;;;;1.77;0.40;;;17.30;99.90;;;;;;10092997;29;20295;-88
2023/08/30 14:03:58;;;;;;;2.15;0.60;;;17.40;99.90;;;;;;10091225;29;20752;-88
2023/08/30 14:09:01;;;;;;;1.27;0.68;;;17.70;99.90;;;;;;10092885;29;20300;-87
2023/08/30 14:14:04;;;;;;;1.30;0.70;;;17.90;99.90;;;;;;10092552;29;20257;-87
2023/08/30 14:19:07;;;;;;;2.30;0.80;;;17.80;99.90;;;;;;10091439;29;20228;-87
2023/08/30 14:24:09;;;;;;;0.68;0.30;;;17.40;99.90;;;;;;10092320;29;20248;-87
2023/08/30 14:29:12;;;;;;;0.65;0.30;;;17.20;99.90;;;;;;10090756;29;20257;-87
2023/08/30 14:34:15;;;;;;;3.05;0.40;;;17.10;99.90;;;;;;10092257;29;20260;-87
2023/08/30 14:39:18;;;;;;;1.15;0.40;;;17.00;99.90;;;;;;10091795;29;20229;-87
2023/08/30 14:44:21;;;;;;;1.05;0.50;;;17.10;99.90;;;;;;10091964;29;20729;-87
2023/08/30 14:49:23;;;;;;;1.90;0.50;;;17.40;99.90;;;;;;10090584;29;20263;-87
2023/08/30 14:54:26;;;;;;;0.80;0.63;;;17.50;99.90;;;;;;10089143;29;20320;-87
2023/08/30 14:59:29;;;;;;;0.43;0.40;;;17.40;99.90;;;;;;10091114;29;20636;-87
2023/08/30 15:04:32;;;;;;;3.17;1.33;;;17.30;99.90;;;;;;10091425;29;20244;-87
2023/08/30 15:09:34;;;;;;;1.17;0.60;;;17.20;99.90;;;;;;10091512;29;20316;-88
2023/08/30 15:14:40;;;;;;;2.15;0.65;;;17.20;99.90;;;;;;10090692;29;20285;-87
2023/08/30 15:19:43;;;;;;;0.95;0.70;;;17.20;99.90;;;;;;10091085;29;20236;-87
2023/08/30 15:24:45;;;;;;;0.55;0.45;;;17.20;99.90;;;;;;10090597;29;20930;-87
2023/08/30 15:29:53;;;;;;;0.82;0.70;;;17.10;99.90;;;;;;10090303;29;20240;-87
2023/08/30 15:34:56;;;;;;;0.35;0.32;;;17.10;99.90;;;;;;10090664;29;20324;-87
2023/08/30 15:40:04;;;;;;;0.90;0.50;;;16.90;99.90;;;;;;10089387;29;20709;-87
2023/08/30 15:45:07;;;;;;;1.52;0.50;;;16.80;99.90;;;;;;10090248;29;20240;-87
2023/08/30 15:50:09;;;;;;;2.72;0.70;;;16.70;99.90;;;;;;10094229;29;20240;-84
2023/08/30 15:55:12;;;;;;;0.63;0.60;;;16.80;99.90;;;;;;10141647;23;20259;-88
2023/08/30 16:00:15;;;;;;;1.48;0.85;;;17.10;99.90;;;;;;10111624;29;20295;-88
2023/08/30 16:05:18;;;;;;;2.42;0.68;;;17.10;99.90;;;;;;10111706;29;20232;-87
2023/08/30 16:10:21;;;;;;;4.40;1.35;;;17.00;99.90;;;;;;10127708;29;20247;-88
2023/08/30 16:15:23;;;;;;;1.70;1.30;;;16.90;99.90;;;;;;10165687;29;20258;-87
2023/08/30 16:20:26;;;;;;;2.58;2.00;;;16.80;99.90;;;;;;10134565;29;20644;-88
2023/08/30 16:25:29;;;;;;;3.08;2.00;;;16.60;99.90;;;;;;9451668;29;10000688;-88
2023/08/30 16:30:36;;;;;;;5.10;2.10;;;16.50;99.90;;;;;;10118464;29;20310;-89
2023/08/30 16:35:39;;;;;;;2.83;2.20;;;16.50;99.90;;;;;;10167318;29;20263;-89
2023/08/30 16:40:42;;;;;;;3.45;2.45;;;16.30;99.90;;;;;;10167355;29;20728;-89
2023/08/30 16:45:44;;;;;;;5.55;3.20;;;16.30;99.90;;;;;;10167591;29;20698;-88
2023/08/30 16:50:47;;;;;;;6.38;3.53;;;16.20;99.90;;;;;;10140830;29;20585;-89
2023/08/30 16:55:49;;;;;;;4.70;3.38;;;16.20;99.90;;;;;;10118948;29;20684;-89
2023/08/30 17:00:52;;;;;;;5.20;3.38;;;16.10;99.90;;;;;;10135508;29;20654;-89
2023/08/30 17:05:56;;;;;;;5.32;3.97;;;16.00;99.90;;;;;;10123579;29;20260;-89
2023/08/30 17:11:05;;;;;;;3.72;2.45;;;16.00;99.90;;;;;;10136645;29;20374;-88
2023/08/30 17:16:09;;;;;;;2.35;2.05;;;16.00;99.90;;;;;;10130923;29;20259;-88
2023/08/30 17:21:12;;;;;;;2.45;2.00;;;15.90;99.90;;;;;;10129218;29;20236;-89
2023/08/30 17:26:15;;;;;;;4.07;2.45;;;15.80;99.90;;;;;;10123331;29;20247;-89
2023/08/30 17:31:22;;;;;;;2.38;1.88;;;15.70;99.90;;;;;;10137653;29;20239;-89
2023/08/30 17:36:25;;;;;;;4.80;2.33;;;15.70;99.90;;;;;;10131785;29;20815;-89
2023/08/30 17:41:28;;;;;;;4.35;2.47;;;15.60;99.90;;;;;;10146955;29;20243;-89
2023/08/30 17:46:32;;;;;;;2.47;2.28;;;15.50;99.90;;;;;;10169731;29;20239;-89
2023/08/30 17:51:35;;;;;;;4.97;2.20;;;15.50;99.90;;;;;;10168619;29;20807;-89
2023/08/30 17:56:37;;;;;;;3.75;2.38;;;15.50;99.90;;;;;;10169382;29;20278;-89
2023/08/30 18:01:41;;;;;;;2.63;2.00;;;15.50;99.90;;;;;;10109967;29;20269;-89
2023/08/30 18:06:44;;;;;;;2.70;2.05;;;15.50;99.90;;;;;;10116280;29;20265;-88
2023/08/30 18:11:47;;;;;;;2.97;2.35;;;15.50;99.90;;;;;;10106294;29;20236;-89
2023/08/30 18:16:50;;;;;;;3.58;2.80;;;15.50;99.90;;;;;;10074515;29;20317;-88
2023/08/30 18:21:53;;;;;;;4.65;3.20;;;15.60;99.90;;;;;;10142366;29;20235;-86
2023/08/30 18:26:55;;;;;;;4.07;3.28;;;15.60;99.90;;;;;;10136806;29;20248;-88
2023/08/30 18:31:58;;;;;;;4.72;2.40;;;15.60;99.90;;;;;;10115931;29;20228;-87
2023/08/30 18:37:03;;;;;;;3.17;2.40;;;15.60;99.90;;;;;;10135082;29;20323;-88
2023/08/30 18:42:06;;;;;;;1.95;1.77;;;15.50;99.90;;;;;;10142501;29;20319;-88
2023/08/30 18:47:11;;;;;;;2.85;1.10;;;15.50;99.90;;;;;;10111809;29;20247;-89
2023/08/30 18:52:14;;;;;;;3.30;0.75;;;15.30;99.90;;;;;;10107407;29;20240;-89
2023/08/30 18:57:18;;;;;;;2.72;0.80;;;15.20;99.90;;;;;;10113226;29;20339;-89
2023/08/30 19:02:20;;;;;;;4.97;1.30;;;15.20;99.90;;;;;;10145598;29;20231;-89
2023/08/30 19:07:23;;;;;;;1.95;1.00;;;15.10;99.90;;;;;;10103485;29;20290;-90
2023/08/30 19:12:26;;;;;;;3.80;1.38;;;15.20;99.90;;;;;;10109953;29;20304;-88
2023/08/30 19:17:29;;;;;;;2.72;1.30;;;15.10;99.90;;;;;;10127686;29;20260;-89
2023/08/30 19:22:31;;;;;;;1.10;0.80;;;15.00;99.90;;;;;;10127842;29;20260;-88
2023/08/30 19:27:34;;;;;;;2.70;0.95;;;15.00;99.90;;;;;;10107207;29;20764;-90
2023/08/30 19:32:38;;;;;;;1.42;0.93;;;15.00;99.90;;;;;;10127933;29;20295;-90
2023/08/30 19:37:40;;;;;;;3.53;1.05;;;15.10;99.90;;;;;;10154821;29;20653;-91
2023/08/30 19:42:46;;;;;;;1.80;1.02;;;14.90;99.90;;;;;;10110133;29;20235;-90
2023/08/30 19:47:48;;;;;;;2.30;1.20;;;14.80;99.90;;;;;;10140028;29;20247;-90
2023/08/30 19:52:51;;;;;;;1.65;1.20;;;14.70;99.90;;;;;;10145721;29;20267;-90
2023/08/30 19:57:53;;;;;;;3.03;1.25;;;14.60;99.90;;;;;;10129085;29;20686;-89
2023/08/30 20:02:56;;;;;;;3.53;1.20;;;14.40;99.90;;;;;;10126314;29;20275;-90
2023/08/30 20:07:59;;;;;;;1.88;1.10;;;14.10;99.90;;;;;;10138484;29;20232;-89
2023/08/30 20:13:02;;;;;;;2.05;1.38;;;13.80;99.90;;;;;;10127984;29;20240;-90
2023/08/30 20:18:05;;;;;;;2.85;1.52;;;13.70;99.90;;;;;;10110721;29;20327;-89
2023/08/30 20:23:09;;;;;;;2.90;1.75;;;13.50;99.90;;;;;;10133791;29;20299;-90
2023/08/30 20:28:12;;;;;;;1.98;1.73;;;13.30;99.90;;;;;;10117857;29;20286;-90
2023/08/30 20:33:15;;;;;;;2.80;1.40;;;13.10;99.90;;;;;;10122535;29;20260;-89
2023/08/30 20:38:18;;;;;;;5.97;1.48;;;12.90;99.90;;;;;;10139894;29;20385;-89
2023/08/30 20:43:21;;;;;;;2.47;1.25;;;12.80;99.90;;;;;;10155640;29;20691;-89
2023/08/30 20:48:23;;;;;;;4.05;1.85;;;12.70;99.90;;;;;;10117153;29;20314;-89
2023/08/30 20:53:36;;;;;;;2.75;2.13;;;12.60;99.90;;;;;;10117007;29;20268;-89
2023/08/30 20:58:41;;;;;;;5.88;2.10;;;12.60;99.90;;;;;;10095706;29;20300;-89
2023/08/30 21:03:44;;;;;;;3.50;1.95;;;12.50;99.90;;;;;;10101831;29;20637;-90
2023/08/30 21:08:48;;;;;;;2.47;1.88;;;12.50;99.90;;;;;;10094036;29;20237;-90
2023/08/30 21:13:50;;;;;;;5.68;2.10;;;12.70;99.90;;;;;;10095967;29;20671;-90
2023/08/30 21:18:53;;;;;;;5.85;1.98;;;12.70;99.90;;;;;;10096106;29;20735;-90
2023/08/30 21:23:59;;;;;;;3.38;2.50;;;12.80;99.90;;;;;;10092352;29;20267;-90
2023/08/30 21:29:03;;;;;;;2.83;2.10;;;12.90;99.90;;;;;;10094866;29;20267;-90
2023/08/30 21:34:09;;;;;;;3.70;2.38;;;13.00;99.90;;;;;;10081926;29;20245;-89
2023/08/30 21:39:16;;;;;;;4.25;2.97;;;13.10;99.90;;;;;;10096617;29;20387;-89
2023/08/30 21:44:18;;;;;;;6.22;4.85;;;13.20;99.90;;;;;;10120263;29;20213;-90
2023/08/30 21:49:21;;;;;;;11.32;4.80;;;13.30;99.90;;;;;;10088416;29;20297;-89
2023/08/30 21:54:23;;;;;;;6.80;5.13;;;13.50;99.90;;;;;;10120030;29;20241;-90
2023/08/30 21:59:26;;;;;;;6.40;4.70;;;13.60;99.90;;;;;;10127133;29;20264;-89
2023/08/30 22:04:33;;;;;;;9.90;5.10;;;13.70;99.90;;;;;;10127537;29;20201;-89
2023/08/30 22:09:35;;;;;;;6.07;4.70;;;13.80;99.90;;;;;;10106195;29;20243;-89
2023/08/30 22:14:38;;;;;;;9.32;4.88;;;13.80;99.90;;;;;;10115220;29;20272;-89
2023/08/30 22:19:51;;;;;;;9.02;4.75;;;13.80;99.90;;;;;;10129421;29;20260;-90
2023/08/30 22:24:53;;;;;;;9.98;4.63;;;13.90;99.90;;;;;;10131374;29;20710;-89
2023/08/30 22:29:56;;;;;;;5.93;4.65;;;13.90;99.90;;;;;;10130142;29;20685;-88
2023/08/30 22:34:59;;;;;;;5.78;4.60;;;13.80;99.90;;;;;;10129721;29;20244;-89
2023/08/30 22:40:08;;;;;;;7.05;5.72;;;13.80;99.90;;;;;;10113535;29;20248;-89
2023/08/30 22:45:10;;;;;;;13.48;7.43;;;13.80;99.90;;;;;;10129547;29;20251;-89
2023/08/30 22:50:13;;;;;;;17.30;7.22;;;13.70;99.90;;;;;;10152759;29;20239;-89
2023/08/30 22:55:16;;;;;;;7.78;5.85;;;13.70;99.90;;;;;;10152532;29;20259;-89
2023/08/30 23:00:18;;;;;;;8.13;5.82;;;13.70;99.90;;;;;;10150961;29;20232;-89
2023/08/30 23:05:21;;;;;;;5.93;5.30;;;13.70;99.90;;;;;;10129165;29;20244;-89
2023/08/30 23:10:26;;;;;;;6.88;5.15;;;13.70;99.90;;;;;;10161936;29;20243;-89
2023/08/30 23:15:29;;;;;;;7.22;5.05;;;13.60;99.90;;;;;;10152964;29;20718;-89
2023/08/30 23:20:35;;;;;;;8.27;5.30;;;13.60;99.90;;;;;;10113758;29;20236;-89
2023/08/30 23:25:39;;;;;;;9.52;5.57;;;13.60;99.90;;;;;;10112399;29;20299;-89
2023/08/30 23:30:41;;;;;;;7.45;5.40;;;13.60;99.90;;;;;;10129718;29;20243;-89
2023/08/30 23:35:44;;;;;;;5.25;4.72;;;13.60;99.90;;;;;;10112328;29;20732;-89
2023/08/30 23:40:48;;;;;;;6.28;5.50;;;13.50;99.90;;;;;;10131310;29;20236;-89
2023/08/30 23:45:53;;;;;;;6.63;4.95;;;13.50;99.90;;;;;;10138563;29;20235;-89
2023/08/30 23:50:56;;;;;;;4.93;4.53;;;13.50;99.90;;;;;;10167596;29;20251;-89
2023/08/30 23:55:59;;;;;;;6.93;4.50;;;13.50;99.90;;;;;;10163953;29;20274;-89
